KBBW/BBW METAR and TAF weather

Enter ICAO airport designator
Station Type Date Time Source
KBBW METAR 2018/10/21 04:53 UTC NOAA

KBBW 210453Z AUTO 14003KT 10SM CLR 02/M02 A3029 RMK AO2 SLP263 T00221022


Station Type Date Time Source
KBBW Decoded METAR 2018/10/21 04:53 UTC NOAA

BROKEN BOW MUNICIPAL AIRPORT, NE, United States (KBBW) 41-26N 099-38W
Oct 21, 2018 - 12:53 AM EDT / 2018.10.21 0453 UTC
Wind: from the SE (140 degrees) at 3 MPH (3 KT):0
Visibility: 10 mile(s):0
Sky conditions: clear
Temperature: 36.0 F (2.2 C)
Dew Point: 28.0 F (-2.2 C)
Relative Humidity: 72%
Pressure (altimeter): 30.29 in. Hg (1025 hPa)
ob: KBBW 210453Z AUTO 14003KT 10SM CLR 02/M02 A3029 RMK AO2 SLP263 T00221022
cycle: 5

Station Type Date Time Source
KBBW TAF UTC NOAA

Error!


Example: see airport list